Portada
METAR-TAF:

METAR-TAF

Aeroports :

Municipal_Airport

Plymouth, Nova Hampshire, Estats Units d'Amèrica

latitud: 43-46-45N, longitud: 071-45-13W, altitud: 154 m

Observació

L'informe es va fer fa 21 minuts, a les 08:55 UTC
Vent 4 kt del Oest/Sud-Oest
Temperatura 19°C
Humitat 68%
Pressió 1011 hPa
Visibilitat: 16.1 km
Cel ennuvolat a una alçada de 3000 ft
Cel cobert a una alçada de 3600 ft

METAR: K1P1 160855Z AUTO 25004KT 10SM BKN030 OVC036 19/13 A2984 RMK AO2 T01850131

Hora: 05:16 (09:16 UTC)


TAF: manca

Observacions i pronòstics meteorològics de més de 4000 aeroports (METAR i TAF).

Les estacions disponibles són els punts grocs i vermells al mapa.

Posi el ratolí al punt desitjat per veure el nom de l'estació.

Feu clic per veure les observacions i els pronòstics meteorològics.

Per canviar el mapa: feu clic els botons verds amb una creu de color negre per apropar; al botó verd amb un guió per allunyar la imatge; o en les fletxes verdes per a mapes adjacents.


METAR-TAF: